Time;durP1;ratioP1;P1;durP2;ratioP2;P2;SDS_P1;SDS_P2;PMS_P1;PMS_P2;Temp;Humidity;BMP_temperature;BMP_pressure;BME280_temperature;BME280_humidity;BME280_pressure;Samples;Min_cycle;Max_cycle;Signal;HPM_P1;HPM_P2
2023/06/19 00:02:14;;;;;;;;;;;;;;;27.34;35.68;100357.19;5083226;28;1230;-20
2023/06/19 00:04:40;;;;;;;;;;;;;;;27.24;35.81;100367.50;5087459;28;1018;-20
2023/06/19 00:07:05;;;;;;;;;;;;;;;27.26;36.09;100370.81;5076770;28;1050;-20
2023/06/19 00:09:31;;;;;;;;;;;;;;;27.38;35.34;100363.03;5085523;28;1890;-20
2023/06/19 00:11:59;;;;;;;;;;;;;;;27.08;36.57;100369.41;5080620;28;1003;-21
2023/06/19 00:14:25;;;;;;;;;;;;;;;27.31;35.82;100364.84;5085805;28;1070;-21
2023/06/19 00:16:50;;;;;;;;;;;;;;;27.24;36.61;100368.31;5080737;28;1218;-21
2023/06/19 00:19:17;;;;;;;;;;;;;;;27.29;35.56;100359.66;5076778;28;1149;-20
2023/06/19 00:21:42;;;;;;;;;;;;;;;27.37;35.88;100361.38;5079050;28;992;-20
2023/06/19 00:24:08;;;;;;;;;;;;;;;27.37;35.91;100362.22;5097274;28;1232;-20
2023/06/19 00:26:34;;;;;;;;;;;;;;;27.44;36.42;100362.28;5093824;28;1058;-20
2023/06/19 00:29:00;;;;;;;;;;;;;;;27.41;35.68;100367.22;5076550;28;1898;-21
2023/06/19 00:31:27;;;;;;;;;;;;;;;27.46;36.01;100360.19;5079461;28;1174;-20
2023/06/19 00:33:53;;;;;;;;;;;;;;;27.38;36.79;100366.56;5086990;28;1185;-20
2023/06/19 00:36:23;;;;;;;;;;;;;;;27.36;36.48;100363.22;5078320;28;1197;-20
2023/06/19 00:38:48;;;;;;;;;;;;;;;27.31;36.43;100378.34;5085836;28;1119;-20
2023/06/19 00:41:15;;;;;;;;;;;;;;;27.30;36.91;100372.13;5075150;28;1063;-20
2023/06/19 00:43:41;;;;;;;;;;;;;;;27.42;36.30;100369.72;5078534;28;1054;-20
2023/06/19 00:46:07;;;;;;;;;;;;;;;27.42;36.58;100372.44;5060669;28;1117;-20
2023/06/19 00:48:32;;;;;;;;;;;;;;;27.55;36.29;100376.25;5087642;28;1901;-20
2023/06/19 00:50:58;;;;;;;;;;;;;;;27.41;36.66;100375.31;5060471;28;1042;-20
2023/06/19 00:53:24;;;;;;;;;;;;;;;27.61;35.79;100380.91;5075208;28;1150;-20
2023/06/19 00:55:53;;;;;;;;;;;;;;;27.36;36.83;100378.63;5093744;28;1047;-20
2023/06/19 00:58:19;;;;;;;;;;;;;;;27.34;36.88;100367.97;5085072;28;1218;-20
2023/06/19 01:00:46;;;;;;;;;;;;;;;27.46;36.68;100364.78;5071496;28;1134;-20
2023/06/19 01:03:12;;;;;;;;;;;;;;;27.35;37.36;100361.56;5071299;28;1110;-20
2023/06/19 01:05:37;;;;;;;;;;;;;;;27.43;37.20;100362.44;5082317;28;1155;-23
2023/06/19 01:08:23;;;;;;;;;;;;;;;27.50;36.66;100368.75;5085145;28;1138;-22
2023/06/19 01:10:54;;;;;;;;;;;;;;;27.38;37.37;100360.34;5057361;28;1909;-20
2023/06/19 01:13:22;;;;;;;;;;;;;;;27.50;37.18;100356.09;5072366;28;1215;-20
2023/06/19 01:15:49;;;;;;;;;;;;;;;27.50;37.17;100361.50;5061442;28;1098;-21
2023/06/19 01:18:14;;;;;;;;;;;;;;;27.45;36.89;100365.78;5082882;28;1210;-21
2023/06/19 01:20:42;;;;;;;;;;;;;;;27.29;37.33;100370.44;5070046;28;1174;-21
2023/06/19 01:23:08;;;;;;;;;;;;;;;27.37;37.29;100364.91;5057849;28;1297;-21
2023/06/19 01:25:33;;;;;;;;;;;;;;;27.34;36.81;100376.09;5076126;28;924;-19
2023/06/19 01:27:59;;;;;;;;;;;;;;;27.30;36.81;100373.97;5079396;28;1063;-20
2023/06/19 01:30:25;;;;;;;;;;;;;;;27.28;37.69;100373.34;5077957;28;1913;-21
2023/06/19 01:32:55;;;;;;;;;;;;;;;27.37;37.11;100370.31;5082695;28;1122;-21
2023/06/19 01:35:23;;;;;;;;;;;;;;;27.34;37.59;100370.69;5077759;28;1046;-20
2023/06/19 01:37:50;;;;;;;;;;;;;;;27.41;36.55;100370.75;5094111;28;1160;-21
2023/06/19 01:40:15;;;;;;;;;;;;;;;27.38;36.11;100373.84;5076147;28;876;-21
2023/06/19 01:42:41;;;;;;;;;;;;;;;27.34;36.91;100365.28;5070282;28;1141;-20
2023/06/19 01:45:07;;;;;;;;;;;;;;;27.23;37.29;100365.81;5084211;28;1056;-21
2023/06/19 01:47:32;;;;;;;;;;;;;;;27.31;36.67;100362.16;5077413;28;1166;-22
2023/06/19 01:49:58;;;;;;;;;;;;;;;26.98;38.48;100377.78;5087724;28;1910;-20
2023/06/19 01:52:24;;;;;;;;;;;;;;;26.92;39.08;100380.41;5068751;28;1246;-20
2023/06/19 01:54:50;;;;;;;;;;;;;;;26.92;38.37;100369.63;5086399;28;1484;-20
2023/06/19 01:57:15;;;;;;;;;;;;;;;26.97;37.99;100370.72;5098686;28;1571;-20
2023/06/19 01:59:41;;;;;;;;;;;;;;;27.03;37.66;100369.16;5073002;28;1093;-21
2023/06/19 02:02:07;;;;;;;;;;;;;;;27.14;38.33;100370.50;5061755;28;1202;-19
2023/06/19 02:04:32;;;;;;;;;;;;;;;27.01;38.69;100374.72;5073632;28;1032;-21
2023/06/19 02:06:58;;;;;;;;;;;;;;;26.95;38.92;100380.88;5084301;28;1047;-20
2023/06/19 02:09:24;;;;;;;;;;;;;;;26.99;37.89;100379.44;5061170;28;1949;-20
2023/06/19 02:11:49;;;;;;;;;;;;;;;26.96;38.57;100373.63;5080752;28;1269;-23
2023/06/19 02:14:15;;;;;;;;;;;;;;;27.25;37.22;100386.19;5072693;28;1285;-21
2023/06/19 02:16:43;;;;;;;;;;;;;;;27.28;37.75;100386.84;5062956;28;1169;-21
2023/06/19 02:19:10;;;;;;;;;;;;;;;27.22;38.13;100383.88;5061118;28;1545;-20
2023/06/19 02:21:38;;;;;;;;;;;;;;;27.19;37.78;100397.78;5074472;28;1290;-20
2023/06/19 02:24:04;;;;;;;;;;;;;;;27.15;37.97;100391.06;5080694;28;1020;-20
2023/06/19 02:26:29;;;;;;;;;;;;;;;27.28;38.06;100390.38;5084178;28;1019;-21
2023/06/19 02:28:55;;;;;;;;;;;;;;;27.16;38.58;100402.72;5084918;28;1906;-21
2023/06/19 02:31:24;;;;;;;;;;;;;;;27.19;38.37;100397.78;5091150;28;1102;-22
2023/06/19 02:33:49;;;;;;;;;;;;;;;27.19;37.69;100411.28;5078783;28;1222;-20
2023/06/19 02:36:21;;;;;;;;;;;;;;;27.44;37.20;100401.94;5085165;28;1314;-21
2023/06/19 02:38:47;;;;;;;;;;;;;;;27.16;37.69;100405.41;5098736;28;1069;-21
2023/06/19 02:41:14;;;;;;;;;;;;;;;27.16;37.22;100403.53;5076838;28;1241;-21
2023/06/19 02:43:40;;;;;;;;;;;;;;;27.20;37.70;100407.53;5080737;28;1075;-21
2023/06/19 02:46:06;;;;;;;;;;;;;;;27.22;38.03;100410.03;5091471;28;1229;-20
2023/06/19 02:48:33;;;;;;;;;;;;;;;27.13;37.67;100404.78;5078375;28;1189;-21
2023/06/19 02:50:59;;;;;;;;;;;;;;;27.24;37.77;100421.50;5078917;28;1071;-21
2023/06/19 02:53:24;;;;;;;;;;;;;;;27.49;37.59;100423.81;5082320;28;1000;-22
2023/06/19 02:55:50;;;;;;;;;;;;;;;27.29;37.02;100418.22;5098257;28;1181;-21
2023/06/19 02:58:16;;;;;;;;;;;;;;;27.24;37.92;100425.00;5089512;28;1074;-21
2023/06/19 03:00:41;;;;;;;;;;;;;;;26.48;43.10;100418.06;5060210;28;1078;-21
2023/06/19 03:03:07;;;;;;;;;;;;;;;26.12;45.34;100417.78;5077988;28;1296;-21
2023/06/19 03:05:32;;;;;;;;;;;;;;;25.84;46.60;100420.22;5072207;28;872;-21
2023/06/19 03:07:58;;;;;;;;;;;;;;;25.77;46.49;100417.44;5074002;28;1113;-20
2023/06/19 03:10:24;;;;;;;;;;;;;;;26.00;45.80;100427.31;5083022;28;1971;-20
2023/06/19 03:12:51;;;;;;;;;;;;;;;26.17;45.94;100428.81;5066542;28;1229;-20
2023/06/19 03:15:16;;;;;;;;;;;;;;;26.23;45.65;100424.56;5089848;28;988;-21
2023/06/19 03:17:46;;;;;;;;;;;;;;;26.13;45.66;100423.97;5068549;28;944;-20
2023/06/19 03:20:12;;;;;;;;;;;;;;;26.33;43.93;100421.63;5063061;28;1351;-20
2023/06/19 03:22:41;;;;;;;;;;;;;;;26.12;45.22;100425.84;5079934;28;1282;-21
2023/06/19 03:25:08;;;;;;;;;;;;;;;26.40;44.17;100421.72;5066300;28;1269;-20
2023/06/19 03:27:34;;;;;;;;;;;;;;;26.17;45.14;100425.31;5079312;28;1149;-20
2023/06/19 03:30:00;;;;;;;;;;;;;;;26.65;42.28;100426.81;5076810;28;1902;-20
2023/06/19 03:32:35;;;;;;;;;;;;;;;26.47;43.46;100419.94;5070837;28;1295;-21
2023/06/19 03:35:01;;;;;;;;;;;;;;;26.22;44.50;100420.19;5084476;28;1218;-20
2023/06/19 03:37:27;;;;;;;;;;;;;;;26.46;43.42;100418.25;5079676;28;1176;-21
2023/06/19 03:39:53;;;;;;;;;;;;;;;26.22;41.86;100406.72;5073233;28;1126;-21
2023/06/19 03:42:19;;;;;;;;;;;;;;;26.68;43.07;100414.78;5067241;28;1253;-20
2023/06/19 03:44:46;;;;;;;;;;;;;;;26.33;43.78;100402.75;5059573;28;1352;-20
2023/06/19 03:47:11;;;;;;;;;;;;;;;26.44;43.02;100404.16;5059563;28;1408;-21
2023/06/19 03:49:37;;;;;;;;;;;;;;;26.35;41.72;100398.00;5090898;28;1973;-21
2023/06/19 03:52:02;;;;;;;;;;;;;;;26.45;43.87;100408.50;5079534;28;1153;-21
2023/06/19 03:54:28;;;;;;;;;;;;;;;26.18;44.17;100410.78;5079362;28;1194;-21
2023/06/19 03:56:54;;;;;;;;;;;;;;;26.11;44.75;100417.97;5079093;28;1122;-20
2023/06/19 03:59:20;;;;;;;;;;;;;;;26.50;42.98;100416.88;5065785;28;1280;-24
2023/06/19 04:01:45;;;;;;;;;;;;;;;26.57;43.99;100408.03;5074889;28;1084;-21
2023/06/19 04:04:11;;;;;;;;;;;;;;;26.57;42.21;100413.41;5080528;28;1074;-21
2023/06/19 04:06:36;;;;;;;;;;;;;;;26.14;44.80;100420.28;5078724;28;1082;-22
2023/06/19 04:09:03;;;;;;;;;;;;;;;26.12;44.37;100423.16;5097043;28;1992;-21
2023/06/19 04:11:28;;;;;;;;;;;;;;;26.33;43.77;100427.00;5079099;28;1170;-21
2023/06/19 04:13:55;;;;;;;;;;;;;;;26.13;43.89;100415.91;5066143;28;1098;-21
2023/06/19 04:16:21;;;;;;;;;;;;;;;25.90;44.83;100419.50;5077775;28;1162;-22
2023/06/19 04:18:47;;;;;;;;;;;;;;;25.97;45.40;100422.28;5060189;28;1313;-22
2023/06/19 04:21:13;;;;;;;;;;;;;;;26.13;44.06;100430.22;5077311;28;1226;-20
2023/06/19 04:23:39;;;;;;;;;;;;;;;26.23;44.01;100435.34;5075700;28;1260;-20
2023/06/19 04:26:04;;;;;;;;;;;;;;;25.96;44.75;100426.03;5071195;28;1059;-21
2023/06/19 04:28:31;;;;;;;;;;;;;;;26.26;43.59;100431.41;5081406;28;1086;-21
2023/06/19 04:31:00;;;;;;;;;;;;;;;26.24;44.08;100441.56;5083960;28;1976;-20
2023/06/19 04:33:26;;;;;;;;;;;;;;;25.86;45.29;100442.44;5096363;28;1142;-21
2023/06/19 04:35:52;;;;;;;;;;;;;;;25.73;44.92;100443.03;5078934;28;1121;-21
2023/06/19 04:38:17;;;;;;;;;;;;;;;26.06;43.67;100444.63;5083222;28;1002;-21
2023/06/19 04:40:43;;;;;;;;;;;;;;;26.20;44.52;100448.34;5087988;28;1061;-19
2023/06/19 04:43:09;;;;;;;;;;;;;;;26.50;43.10;100440.31;5076864;28;1090;-21
2023/06/19 04:45:34;;;;;;;;;;;;;;;26.51;42.65;100455.47;5076863;28;1163;-21
2023/06/19 04:48:02;;;;;;;;;;;;;;;26.69;42.89;100455.09;5076685;28;1101;-21
2023/06/19 04:50:28;;;;;;;;;;;;;;;26.43;40.97;100453.69;5076839;28;1980;-20
2023/06/19 04:52:53;;;;;;;;;;;;;;;26.27;43.14;100449.28;5082190;28;1040;-20
2023/06/19 04:55:19;;;;;;;;;;;;;;;25.99;43.02;100452.59;5083211;28;1154;-20
2023/06/19 04:57:45;;;;;;;;;;;;;;;26.31;42.52;100444.38;5082878;28;1083;-21
2023/06/19 05:00:10;;;;;;;;;;;;;;;26.23;42.64;100448.81;5083151;28;996;-21
2023/06/19 05:02:36;;;;;;;;;;;;;;;26.15;42.24;100455.13;5076238;28;1160;-21
2023/06/19 05:05:03;;;;;;;;;;;;;;;26.12;42.17;100450.13;5089321;28;1079;-21
2023/06/19 05:07:31;;;;;;;;;;;;;;;26.32;41.98;100440.66;5082972;28;1000;-21
2023/06/19 05:09:57;;;;;;;;;;;;;;;26.09;42.27;100436.97;5082796;28;1973;-21
2023/06/19 05:12:23;;;;;;;;;;;;;;;26.09;42.65;100441.56;5076409;28;1098;-19
2023/06/19 05:14:48;;;;;;;;;;;;;;;26.33;41.60;100432.41;5089884;28;1050;-19
2023/06/19 05:17:14;;;;;;;;;;;;;;;26.69;39.79;100427.28;5077524;28;1041;-19
2023/06/19 05:19:40;;;;;;;;;;;;;;;26.62;40.49;100435.28;5088904;28;1218;-20
2023/06/19 05:22:06;;;;;;;;;;;;;;;26.90;40.26;100437.28;5083013;28;1134;-19
2023/06/19 05:24:32;;;;;;;;;;;;;;;27.01;39.31;100449.44;5083296;28;1007;-20
2023/06/19 05:26:57;;;;;;;;;;;;;;;27.00;38.79;100437.81;5092543;28;1138;-19
2023/06/19 05:29:23;;;;;;;;;;;;;;;26.97;39.60;100435.50;5093866;28;1959;-20
2023/06/19 05:31:49;;;;;;;;;;;;;;;26.94;38.83;100433.19;5099727;28;1062;-19
2023/06/19 05:34:14;;;;;;;;;;;;;;;27.11;39.38;100438.41;5082817;28;1046;-19
2023/06/19 05:36:40;;;;;;;;;;;;;;;27.48;38.03;100451.84;5080089;28;1063;-19
2023/06/19 05:39:05;;;;;;;;;;;;;;;27.46;38.17;100443.94;5080055;28;1058;-19
2023/06/19 05:41:31;;;;;;;;;;;;;;;27.43;38.12;100455.13;5087272;28;1131;-19
2023/06/19 05:43:56;;;;;;;;;;;;;;;27.45;38.15;100463.88;5062739;28;1075;-20
2023/06/19 05:46:22;;;;;;;;;;;;;;;27.53;38.66;100456.69;5092941;28;1129;-20
2023/06/19 05:48:48;;;;;;;;;;;;;;;27.53;38.72;100467.50;5080106;28;1969;-19
2023/06/19 05:51:13;;;;;;;;;;;;;;;27.55;38.79;100466.25;5092224;28;1067;-19
2023/06/19 05:53:40;;;;;;;;;;;;;;;27.55;38.00;100470.81;5089156;28;1209;-20
2023/06/19 05:56:05;;;;;;;;;;;;;;;27.62;37.91;100452.81;5092915;28;1190;-19
2023/06/19 05:58:31;;;;;;;;;;;;;;;27.62;37.72;100480.69;5099754;28;1189;-21
2023/06/19 06:00:57;;;;;;;;;;;;;;;27.68;40.26;100467.41;5099849;28;1283;-19
2023/06/19 06:03:24;;;;;;;;;;;;;;;27.62;40.24;100463.63;5099796;28;1194;-19
2023/06/19 06:05:49;;;;;;;;;;;;;;;27.72;39.22;100474.13;5093257;28;936;-20
2023/06/19 06:08:15;;;;;;;;;;;;;;;27.80;38.09;100471.31;5079900;28;1237;-20
2023/06/19 06:10:40;;;;;;;;;;;;;;;27.84;38.04;100471.75;5099050;28;1914;-19
2023/06/19 06:13:06;;;;;;;;;;;;;;;27.96;38.06;100477.47;5099957;28;1229;-20
2023/06/19 06:15:31;;;;;;;;;;;;;;;28.00;38.76;100467.94;5086204;28;1213;-19
2023/06/19 06:17:57;;;;;;;;;;;;;;;27.77;39.00;100463.59;5099542;28;1300;-20
2023/06/19 06:20:23;;;;;;;;;;;;;;;27.90;38.42;100446.63;5099540;28;1391;-20
2023/06/19 06:22:48;;;;;;;;;;;;;;;27.87;37.96;100447.03;5099599;28;1241;-20
2023/06/19 06:25:14;;;;;;;;;;;;;;;27.98;37.82;100437.53;5099690;28;1224;-20
2023/06/19 06:27:39;;;;;;;;;;;;;;;27.93;38.30;100434.59;5099768;28;1268;-20
2023/06/19 06:30:05;;;;;;;;;;;;;;;27.95;38.15;100414.44;5092543;28;1985;-20
2023/06/19 06:32:31;;;;;;;;;;;;;;;27.92;37.65;100420.25;5079318;28;1248;-20
2023/06/19 06:34:57;;;;;;;;;;;;;;;28.02;37.81;100411.78;5079480;28;1218;-19
2023/06/19 06:37:22;;;;;;;;;;;;;;;27.89;37.72;100403.59;5091940;28;1264;-21
2023/06/19 06:39:49;;;;;;;;;;;;;;;27.88;37.44;100400.03;5094062;28;1348;-20
2023/06/19 06:42:15;;;;;;;;;;;;;;;27.97;37.57;100406.97;5089581;28;1232;-21
2023/06/19 06:44:40;;;;;;;;;;;;;;;28.05;37.21;100389.75;5080648;28;1245;-21
2023/06/19 06:47:06;;;;;;;;;;;;;;;28.01;36.85;100393.88;5082571;28;1074;-19
2023/06/19 06:49:31;;;;;;;;;;;;;;;28.20;35.62;100394.22;5096537;28;1914;-19
2023/06/19 06:51:57;;;;;;;;;;;;;;;28.14;36.61;100386.91;5096572;28;1300;-19
2023/06/19 06:54:22;;;;;;;;;;;;;;;28.20;36.82;100397.75;5089128;28;1402;-18
2023/06/19 06:56:48;;;;;;;;;;;;;;;28.25;36.62;100394.44;5098697;28;1289;-19
2023/06/19 06:59:16;;;;;;;;;;;;;;;28.24;36.69;100390.09;5098991;28;1297;-19
2023/06/19 07:01:42;;;;;;;;;;;;;;;28.38;36.24;100392.91;5098625;28;1150;-20
2023/06/19 07:04:07;;;;;;;;;;;;;;;28.50;35.49;100383.16;5098783;28;1386;-21
2023/06/19 07:06:33;;;;;;;;;;;;;;;28.34;35.74;100405.97;5098590;28;1336;-19
2023/06/19 07:08:59;;;;;;;;;;;;;;;28.32;36.04;100410.72;5098929;28;1905;-20
2023/06/19 07:11:24;;;;;;;;;;;;;;;28.35;35.89;100400.38;5095030;28;1280;-20
2023/06/19 07:13:50;;;;;;;;;;;;;;;28.34;35.70;100374.34;5092992;28;1347;-20
2023/06/19 07:16:15;;;;;;;;;;;;;;;28.23;35.96;100421.69;5089538;28;1411;-19
2023/06/19 07:18:41;;;;;;;;;;;;;;;28.32;36.09;100422.38;5098058;28;1070;-21
2023/06/19 07:21:08;;;;;;;;;;;;;;;28.33;36.03;100407.00;5098959;28;1319;-21
2023/06/19 07:23:34;;;;;;;;;;;;;;;28.39;35.86;100419.75;5080647;28;1416;-20
2023/06/19 07:26:00;;;;;;;;;;;;;;;28.32;37.16;100416.13;5098502;28;1261;-20
2023/06/19 07:28:25;;;;;;;;;;;;;;;28.34;37.43;100412.22;5098052;28;1394;-20
2023/06/19 07:30:52;;;;;;;;;;;;;;;28.20;37.42;100410.44;5084859;28;1909;-19
2023/06/19 07:33:17;;;;;;;;;;;;;;;28.09;36.72;100414.53;5086506;28;1328;-19
2023/06/19 07:35:43;;;;;;;;;;;;;;;28.04;36.53;100415.16;5082890;28;1225;-19
2023/06/19 07:38:08;;;;;;;;;;;;;;;28.57;36.27;100432.75;5093999;28;1130;-20
2023/06/19 07:40:34;;;;;;;;;;;;;;;28.68;35.24;100425.91;5085408;28;1285;-20
2023/06/19 07:42:59;;;;;;;;;;;;;;;28.71;34.81;100428.22;5074878;28;1363;-20
2023/06/19 07:45:25;;;;;;;;;;;;;;;28.67;35.25;100434.22;5098177;28;1303;-20
2023/06/19 07:47:57;;;;;;;;;;;;;;;28.51;35.59;100432.72;5083632;28;1031;-20
2023/06/19 07:50:22;;;;;;;;;;;;;;;28.41;36.39;100439.31;5096467;28;1988;-20
2023/06/19 07:52:48;;;;;;;;;;;;;;;28.33;35.30;100440.31;5085127;28;959;-19
2023/06/19 07:55:13;;;;;;;;;;;;;;;28.11;35.76;100437.63;5084611;28;1324;-19
2023/06/19 07:57:39;;;;;;;;;;;;;;;28.09;35.63;100450.50;5087448;28;972;-20
2023/06/19 08:00:10;;;;;;;;;;;;;;;28.14;35.99;100455.34;5093218;28;1090;-20
2023/06/19 08:02:37;;;;;;;;;;;;;;;28.03;36.51;100455.91;5076879;28;1140;-20
2023/06/19 08:05:03;;;;;;;;;;;;;;;28.04;35.77;100466.50;5081488;28;1360;-20
2023/06/19 08:07:28;;;;;;;;;;;;;;;28.02;35.86;100456.91;5084249;28;875;-19
2023/06/19 08:09:54;;;;;;;;;;;;;;;27.91;36.26;100459.13;5089249;28;1906;-19
2023/06/19 08:12:19;;;;;;;;;;;;;;;27.95;35.75;100478.47;5087989;28;1135;-20
2023/06/19 08:14:44;;;;;;;;;;;;;;;27.95;35.96;100486.59;5078562;28;1126;-19
2023/06/19 08:17:10;;;;;;;;;;;;;;;28.02;36.50;100486.66;5076569;28;1027;-19
2023/06/19 08:19:35;;;;;;;;;;;;;;;28.01;36.21;100502.03;5078934;28;879;-20
2023/06/19 08:22:02;;;;;;;;;;;;;;;27.90;36.00;100497.16;5076244;28;1166;-20
2023/06/19 08:24:28;;;;;;;;;;;;;;;27.87;35.55;100506.50;5088501;28;1023;-20
2023/06/19 08:26:54;;;;;;;;;;;;;;;27.91;35.78;100506.94;5083749;28;1061;-19
2023/06/19 08:29:19;;;;;;;;;;;;;;;27.96;35.76;100528.84;5085309;28;1975;-19
2023/06/19 08:31:45;;;;;;;;;;;;;;;28.03;35.73;100518.09;5094769;28;1058;-20
2023/06/19 08:34:10;;;;;;;;;;;;;;;27.86;35.06;100513.75;5084939;28;1038;-20
2023/06/19 08:36:36;;;;;;;;;;;;;;;27.77;35.81;100527.59;5080607;28;1102;-20
2023/06/19 08:39:02;;;;;;;;;;;;;;;27.73;36.71;100536.09;5085456;28;1106;-19
2023/06/19 08:41:28;;;;;;;;;;;;;;;27.79;36.97;100531.81;5076734;28;1150;-20
2023/06/19 08:43:54;;;;;;;;;;;;;;;27.84;36.33;100532.03;5081413;28;1307;-20
2023/06/19 08:46:19;;;;;;;;;;;;;;;27.83;35.86;100526.81;5080803;28;1146;-21
2023/06/19 08:48:48;;;;;;;;;;;;;;;27.88;35.18;100540.59;5067128;28;1902;-19
2023/06/19 08:51:14;;;;;;;;;;;;;;;27.72;35.59;100539.84;5090126;28;1138;-19
2023/06/19 08:53:46;;;;;;;;;;;;;;;27.69;36.30;100534.81;5088246;28;1059;-20
2023/06/19 08:56:12;;;;;;;;;;;;;;;27.95;36.06;100529.84;5089802;28;1154;-20
2023/06/19 08:58:38;;;;;;;;;;;;;;;27.98;35.85;100541.13;5076020;28;1090;-19
2023/06/19 09:01:03;;;;;;;;;;;;;;;27.95;36.49;100543.38;5090468;28;1086;-19
2023/06/19 09:03:29;;;;;;;;;;;;;;;28.01;35.93;100536.34;5075725;28;1248;-19
2023/06/19 09:05:54;;;;;;;;;;;;;;;27.85;36.09;100541.00;5095765;28;1078;-20
2023/06/19 09:08:21;;;;;;;;;;;;;;;27.83;36.69;100546.59;5065468;28;1298;-20
2023/06/19 09:10:56;;;;;;;;;;;;;;;28.14;36.68;100546.44;5071504;28;1918;-20
2023/06/19 09:13:22;;;;;;;;;;;;;;;28.00;36.99;100551.75;5080525;28;1042;-21
2023/06/19 09:15:47;;;;;;;;;;;;;;;28.23;35.70;100556.09;5076245;28;1221;-18
2023/06/19 09:18:13;;;;;;;;;;;;;;;28.70;35.06;100550.22;5088722;28;1209;-18
2023/06/19 09:20:43;;;;;;;;;;;;;;;28.47;35.46;100548.63;5082943;28;839;-18
2023/06/19 09:23:09;;;;;;;;;;;;;;;28.84;34.59;100565.50;5081780;28;1081;-18
2023/06/19 09:25:43;;;;;;;;;;;;;;;28.63;35.27;100563.69;5076188;28;1158;-18
2023/06/19 09:28:16;;;;;;;;;;;;;;;28.87;35.00;100572.41;5076945;28;1208;-18
2023/06/19 09:30:50;;;;;;;;;;;;;;;28.98;34.62;100559.38;5088791;28;1973;-18
2023/06/19 09:33:16;;;;;;;;;;;;;;;28.61;35.99;100560.38;5082283;28;1050;-19
2023/06/19 09:35:41;;;;;;;;;;;;;;;28.64;35.54;100572.66;5084873;28;1095;-18
2023/06/19 09:38:07;;;;;;;;;;;;;;;28.78;35.31;100560.88;5075559;28;1028;-18
2023/06/19 09:40:32;;;;;;;;;;;;;;;28.93;34.91;100562.63;5074348;28;1154;-19
2023/06/19 09:42:58;;;;;;;;;;;;;;;28.96;35.02;100564.94;5093047;28;1122;-19
2023/06/19 09:45:27;;;;;;;;;;;;;;;29.11;34.80;100564.00;5066375;28;1247;-18
2023/06/19 09:47:55;;;;;;;;;;;;;;;29.19;34.28;100556.56;5074409;28;1050;-18
2023/06/19 09:50:22;;;;;;;;;;;;;;;29.42;34.16;100559.94;5074790;28;1906;-18
2023/06/19 09:52:51;;;;;;;;;;;;;;;29.60;33.66;100553.97;5061126;28;1227;-19
2023/06/19 09:55:17;;;;;;;;;;;;;;;29.54;33.35;100560.19;5089603;28;1054;-19
2023/06/19 09:57:42;;;;;;;;;;;;;;;29.49;33.08;100544.56;5059778;28;1058;-18
2023/06/19 10:00:21;;;;;;;;;;;;;;;29.61;32.92;100549.41;5078096;28;1047;-18
2023/06/19 10:02:47;;;;;;;;;;;;;;;29.82;32.55;100542.97;5088611;28;1213;-18
2023/06/19 10:05:14;;;;;;;;;;;;;;;29.96;32.10;100546.56;5088853;28;1145;-19
2023/06/19 10:07:41;;;;;;;;;;;;;;;30.08;31.95;100545.94;5077173;28;957;-18
2023/06/19 10:10:07;;;;;;;;;;;;;;;29.92;31.67;100539.84;5075860;28;1980;-19
2023/06/19 10:12:43;;;;;;;;;;;;;;;30.17;31.42;100541.94;5076029;28;1196;-18
2023/06/19 10:15:12;;;;;;;;;;;;;;;29.37;33.19;100538.88;5084397;28;1193;-18
2023/06/19 10:17:38;;;;;;;;;;;;;;;28.62;35.69;100536.84;5092848;28;958;-18
2023/06/19 10:20:05;;;;;;;;;;;;;;;28.55;35.34;100542.19;5078235;28;1160;-21
2023/06/19 10:22:31;;;;;;;;;;;;;;;28.31;35.57;100539.72;5103029;28;1045;-20
2023/06/19 10:24:56;;;;;;;;;;;;;;;28.30;35.61;100542.63;5096025;28;1256;-19
2023/06/19 10:27:22;;;;;;;;;;;;;;;28.20;35.90;100538.41;5087756;28;1289;-20
2023/06/19 10:29:53;;;;;;;;;;;;;;;28.26;35.30;100534.06;5083589;28;1906;-19
2023/06/19 10:32:19;;;;;;;;;;;;;;;28.14;36.43;100558.13;5097289;28;1397;-19
2023/06/19 10:34:50;;;;;;;;;;;;;;;28.43;37.18;100533.78;5091419;28;1059;-20
2023/06/19 10:37:16;;;;;;;;;;;;;;;28.41;37.45;100552.13;5089212;28;1403;-19
2023/06/19 10:39:42;;;;;;;;;;;;;;;28.68;36.01;100560.38;5099366;28;1288;-20
2023/06/19 10:42:08;;;;;;;;;;;;;;;28.91;35.29;100546.56;5098349;28;1296;-20
2023/06/19 10:44:33;;;;;;;;;;;;;;;28.91;36.15;100534.94;5098436;28;1043;-19
2023/06/19 10:46:59;;;;;;;;;;;;;;;28.73;36.22;100547.09;5092777;28;1050;-20
2023/06/19 10:49:24;;;;;;;;;;;;;;;28.87;36.52;100539.06;5090607;28;1969;-19
2023/06/19 10:51:50;;;;;;;;;;;;;;;28.83;36.59;100552.16;5085069;28;1150;-20
2023/06/19 10:54:16;;;;;;;;;;;;;;;28.72;36.56;100553.56;5086036;28;1020;-20
2023/06/19 10:56:43;;;;;;;;;;;;;;;28.66;37.26;100543.53;5086337;28;1189;-20
2023/06/19 10:59:09;;;;;;;;;;;;;;;28.67;37.83;100543.34;5086886;28;1016;-20
2023/06/19 11:01:38;;;;;;;;;;;;;;;28.74;37.00;100543.38;5089209;28;1087;-20
2023/06/19 11:04:07;;;;;;;;;;;;;;;28.54;37.37;100525.16;5084024;28;1307;-20
2023/06/19 11:06:33;;;;;;;;;;;;;;;28.65;37.33;100529.16;5088165;28;1029;-20
2023/06/19 11:09:00;;;;;;;;;;;;;;;28.94;39.00;100532.66;5084941;28;1975;-19
2023/06/19 11:11:38;;;;;;;;;;;;;;;28.78;40.75;100533.81;5081328;28;1055;-20
2023/06/19 11:14:04;;;;;;;;;;;;;;;28.79;42.39;100537.34;5079031;28;955;-20
2023/06/19 11:16:29;;;;;;;;;;;;;;;28.82;41.90;100529.69;5086542;28;1471;-21
2023/06/19 11:18:58;;;;;;;;;;;;;;;28.60;41.41;100523.50;5078469;28;1141;-20
2023/06/19 11:21:30;;;;;;;;;;;;;;;28.58;40.87;100545.34;5082465;28;846;-20
2023/06/19 11:23:57;;;;;;;;;;;;;;;28.72;40.36;100535.47;5096873;28;1038;-21
2023/06/19 11:26:24;;;;;;;;;;;;;;;28.50;40.42;100536.53;5083130;28;1129;-20
2023/06/19 11:28:49;;;;;;;;;;;;;;;28.43;41.13;100542.75;5098312;28;1058;-19
2023/06/19 11:31:15;;;;;;;;;;;;;;;28.52;39.61;100526.38;5078499;28;1905;-20
2023/06/19 11:33:41;;;;;;;;;;;;;;;28.53;38.81;100515.34;5085402;28;848;-20
2023/06/19 11:36:06;;;;;;;;;;;;;;;28.63;38.87;100514.97;5083663;28;1221;-20
2023/06/19 11:38:34;;;;;;;;;;;;;;;28.60;38.70;100516.22;5098434;28;1193;-20
2023/06/19 11:41:02;;;;;;;;;;;;;;;28.82;37.91;100512.59;5079870;28;1261;-19
2023/06/19 11:43:28;;;;;;;;;;;;;;;28.79;37.95;100513.00;5067381;28;1125;-20
2023/06/19 11:45:54;;;;;;;;;;;;;;;28.80;36.91;100510.09;5066628;28;1391;-20
2023/06/19 11:48:25;;;;;;;;;;;;;;;28.55;37.63;100510.56;5096220;28;1351;-20
2023/06/19 11:50:52;;;;;;;;;;;;;;;28.53;36.95;100520.75;5066672;28;1965;-20
2023/06/19 11:53:19;;;;;;;;;;;;;;;28.40;36.48;100518.81;5082473;28;1150;-20
2023/06/19 11:55:44;;;;;;;;;;;;;;;28.46;36.58;100528.81;5090125;28;1452;-20
2023/06/19 11:58:10;;;;;;;;;;;;;;;28.42;37.06;100521.31;5083344;28;1117;-20
2023/06/19 12:00:38;;;;;;;;;;;;;;;28.73;36.79;100518.16;5089383;28;1063;-19
2023/06/19 12:03:04;;;;;;;;;;;;;;;23.78;45.77;100506.69;5076858;28;1095;-20
2023/06/19 12:05:29;;;;;;;;;;;;;;;21.63;51.49;100500.75;5085985;28;1085;-19
2023/06/19 12:07:55;;;;;;;;;;;;;;;21.38;53.39;100499.66;5083215;28;1026;-20
2023/06/19 12:10:21;;;;;;;;;;;;;;;21.15;54.58;100500.88;5076562;28;1973;-19
2023/06/19 12:12:46;;;;;;;;;;;;;;;20.94;55.01;100498.47;5077082;28;1143;-20
2023/06/19 12:15:12;;;;;;;;;;;;;;;20.80;55.38;100500.59;5076799;28;1107;-20
2023/06/19 12:17:37;;;;;;;;;;;;;;;20.63;56.19;100504.88;5076465;28;1150;-19
2023/06/19 12:20:05;;;;;;;;;;;;;;;20.59;56.91;100499.94;5093134;28;1257;-20
2023/06/19 12:22:34;;;;;;;;;;;;;;;20.65;58.90;100499.38;5083744;28;1074;-19
2023/06/19 12:25:00;;;;;;;;;;;;;;;24.12;48.96;100498.66;5075509;28;1094;-19
2023/06/19 12:27:25;;;;;;;;;;;;;;;21.96;51.36;100502.06;5090633;28;1078;-20
2023/06/19 12:29:51;;;;;;;;;;;;;;;20.68;56.20;100485.72;5078382;28;1902;-20
2023/06/19 12:32:16;;;;;;;;;;;;;;;20.25;57.22;100477.25;5095889;28;1065;-20
2023/06/19 12:34:46;;;;;;;;;;;;;;;20.14;57.97;100479.09;5076691;28;1146;-19
2023/06/19 12:37:15;;;;;;;;;;;;;;;20.02;58.50;100480.22;5074807;28;1237;-19
2023/06/19 12:39:41;;;;;;;;;;;;;;;20.05;58.86;100471.97;5076149;28;1225;-20
2023/06/19 12:42:07;;;;;;;;;;;;;;;22.70;53.67;100482.19;5083127;28;1258;-19
2023/06/19 12:44:32;;;;;;;;;;;;;;;22.68;50.26;100479.66;5093860;28;1242;-20